createdAt,value
2019-04-03T00:01:56.820Z,99.90
2019-04-03T00:04:23.217Z,99.90
2019-04-03T00:06:49.529Z,99.90
2019-04-03T00:09:15.816Z,99.90
2019-04-03T00:11:42.217Z,99.90
2019-04-03T00:14:08.786Z,99.90
2019-04-03T00:16:35.494Z,99.90
2019-04-03T00:19:02.052Z,99.90
2019-04-03T00:21:28.434Z,99.90
2019-04-03T00:23:54.753Z,99.90
2019-04-03T00:26:22.597Z,99.90
2019-04-03T00:28:49.085Z,99.90
2019-04-03T00:31:15.592Z,99.90
2019-04-03T00:33:42.024Z,99.90
2019-04-03T00:36:08.438Z,99.90
2019-04-03T00:38:34.753Z,99.90
2019-04-03T00:41:01.319Z,99.90
2019-04-03T00:43:27.672Z,99.90
2019-04-03T00:45:54.673Z,99.90
2019-04-03T00:48:21.569Z,99.90
2019-04-03T00:50:47.707Z,99.90
2019-04-03T00:53:13.822Z,99.90
2019-04-03T00:55:39.949Z,99.90
2019-04-03T00:58:32.791Z,99.90
2019-04-03T01:00:59.142Z,99.90
2019-04-03T01:03:25.319Z,99.90
2019-04-03T01:05:51.443Z,99.90
2019-04-03T01:08:17.523Z,99.90
2019-04-03T01:10:43.669Z,99.90
2019-04-03T01:13:09.848Z,99.90
2019-04-03T01:15:35.938Z,99.90
2019-04-03T01:18:04.632Z,99.90
2019-04-03T01:20:30.159Z,99.90
2019-04-03T01:22:56.339Z,99.90
2019-04-03T01:25:22.423Z,99.90
2019-04-03T01:27:48.888Z,99.90
2019-04-03T01:30:15.125Z,99.90
2019-04-03T01:32:41.356Z,99.90
2019-04-03T01:35:09.158Z,99.90
2019-04-03T01:37:35.885Z,99.90
2019-04-03T01:40:04.545Z,99.90
2019-04-03T01:42:30.746Z,99.90
2019-04-03T01:44:56.937Z,99.90
2019-04-03T01:47:23.201Z,99.90
2019-04-03T01:49:49.456Z,99.90
2019-04-03T01:52:15.763Z,99.90
2019-04-03T01:54:41.951Z,99.90
2019-04-03T01:57:08.053Z,99.90
2019-04-03T01:59:34.123Z,99.90
2019-04-03T02:02:00.225Z,99.90
2019-04-03T02:04:26.333Z,99.90
2019-04-03T02:06:52.457Z,99.90
2019-04-03T02:09:18.598Z,99.90
2019-04-03T02:11:44.814Z,99.90
2019-04-03T02:14:10.920Z,99.90
2019-04-03T02:16:37.267Z,99.90
2019-04-03T02:19:03.591Z,99.90
2019-04-03T02:21:29.724Z,99.90
2019-04-03T02:23:55.913Z,99.90
2019-04-03T02:26:22.040Z,99.90
2019-04-03T02:28:48.131Z,99.90
2019-04-03T02:31:18.280Z,99.90
2019-04-03T02:33:42.219Z,99.90
2019-04-03T02:36:11.422Z,99.90
2019-04-03T02:38:36.622Z,99.90
2019-04-03T02:41:03.955Z,99.90
2019-04-03T02:43:31.238Z,99.90
2019-04-03T02:45:57.456Z,99.90
2019-04-03T02:48:24.044Z,99.90
2019-04-03T02:50:50.628Z,99.90
2019-04-03T02:53:17.195Z,99.90
2019-04-03T02:55:43.377Z,99.90
2019-04-03T02:58:09.755Z,99.90
2019-04-03T03:00:36.119Z,99.90
2019-04-03T03:03:02.838Z,99.90
2019-04-03T03:05:29.259Z,99.90
2019-04-03T03:07:56.161Z,99.90
2019-04-03T03:10:22.627Z,99.90
2019-04-03T03:12:49.028Z,99.90
2019-04-03T03:15:15.487Z,99.90
2019-04-03T03:17:42.343Z,99.90
2019-04-03T03:20:09.081Z,99.90
2019-04-03T03:22:36.550Z,99.90
2019-04-03T03:25:05.095Z,99.90
2019-04-03T03:27:31.280Z,99.90
2019-04-03T03:29:59.746Z,99.90
2019-04-03T03:32:32.586Z,99.90
2019-04-03T03:35:06.592Z,99.90
2019-04-03T03:37:23.021Z,99.90
2019-04-03T03:39:50.182Z,99.90
2019-04-03T03:42:17.868Z,99.90
2019-04-03T03:44:46.073Z,99.90
2019-04-03T03:47:12.372Z,99.90
2019-04-03T03:49:39.890Z,99.90
2019-04-03T03:52:06.495Z,99.90
2019-04-03T03:54:33.689Z,99.90
2019-04-03T03:57:04.326Z,99.90
2019-04-03T03:59:28.825Z,99.90
2019-04-03T04:01:55.300Z,99.90
2019-04-03T04:04:21.876Z,99.90
2019-04-03T04:06:48.490Z,99.90
2019-04-03T04:09:17.449Z,99.90
2019-04-03T04:11:43.102Z,99.90
2019-04-03T04:14:10.307Z,99.90
2019-04-03T04:16:37.645Z,99.90
2019-04-03T04:19:04.651Z,99.90
2019-04-03T04:21:31.363Z,99.90
2019-04-03T04:23:57.809Z,99.90
2019-04-03T04:26:24.158Z,99.90
2019-04-03T04:28:50.403Z,99.90
2019-04-03T04:31:16.521Z,99.90
2019-04-03T04:33:42.896Z,99.90
2019-04-03T04:36:09.554Z,99.90
2019-04-03T04:38:35.655Z,99.90
2019-04-03T04:41:03.307Z,99.90
2019-04-03T04:43:30.836Z,99.90
2019-04-03T04:45:57.512Z,99.90
2019-04-03T04:48:23.638Z,99.90
2019-04-03T04:50:50.045Z,99.90
2019-04-03T04:53:17.121Z,99.90
2019-04-03T04:55:44.304Z,99.90
2019-04-03T04:58:11.734Z,99.90
2019-04-03T05:00:38.475Z,99.90
2019-04-03T05:03:04.667Z,99.90
2019-04-03T05:05:31.582Z,99.90
2019-04-03T05:07:57.873Z,99.90
2019-04-03T05:10:24.175Z,99.90
2019-04-03T05:12:50.439Z,99.90
2019-04-03T05:15:19.495Z,99.90
2019-04-03T05:17:44.593Z,99.90
2019-04-03T05:20:11.064Z,99.90
2019-04-03T05:22:37.161Z,99.90
2019-04-03T05:25:03.569Z,99.90
2019-04-03T05:27:29.747Z,99.90
2019-04-03T05:29:55.815Z,99.90
2019-04-03T05:32:22.064Z,99.90
2019-04-03T05:34:48.208Z,99.90
2019-04-03T05:37:14.963Z,99.90
2019-04-03T05:39:41.167Z,99.90
2019-04-03T05:42:07.518Z,99.90
2019-04-03T05:44:33.846Z,99.90
2019-04-03T05:47:00.203Z,99.90
2019-04-03T05:49:26.293Z,99.90
2019-04-03T05:51:52.405Z,99.90
2019-04-03T05:54:18.475Z,99.90
2019-04-03T05:56:44.619Z,99.90
2019-04-03T05:59:10.733Z,99.90
2019-04-03T06:01:36.871Z,99.90
2019-04-03T06:04:03.098Z,99.90
2019-04-03T06:06:29.322Z,99.90
2019-04-03T06:08:56.749Z,99.90
2019-04-03T06:11:23.458Z,99.90
2019-04-03T06:13:49.665Z,99.90
2019-04-03T06:16:16.873Z,99.90
2019-04-03T06:18:43.359Z,99.90
2019-04-03T06:21:09.452Z,99.90
2019-04-03T06:23:35.557Z,99.90
2019-04-03T06:26:02.756Z,99.90
2019-04-03T06:28:29.174Z,99.90
2019-04-03T06:30:56.630Z,99.90
2019-04-03T06:33:23.251Z,99.90
2019-04-03T06:35:49.389Z,99.90
2019-04-03T06:38:15.637Z,99.90
2019-04-03T06:40:41.920Z,99.90
2019-04-03T06:43:07.978Z,99.90
2019-04-03T06:45:34.255Z,99.90
2019-04-03T06:48:01.030Z,99.90
2019-04-03T06:50:28.704Z,99.90
2019-04-03T06:52:54.875Z,99.90
2019-04-03T06:55:21.022Z,99.90
2019-04-03T06:57:47.394Z,99.90
2019-04-03T07:00:13.978Z,99.90
2019-04-03T07:02:40.127Z,99.90
2019-04-03T07:05:07.997Z,99.90
2019-04-03T07:07:35.654Z,99.90
2019-04-03T07:10:05.377Z,99.90
2019-04-03T07:12:33.074Z,99.90
2019-04-03T07:14:59.469Z,99.90
2019-04-03T07:17:25.598Z,99.90
2019-04-03T07:19:51.681Z,99.90
2019-04-03T07:22:17.823Z,99.90
2019-04-03T07:24:43.915Z,99.90
2019-04-03T07:27:10.395Z,99.90
2019-04-03T07:29:36.627Z,99.90
2019-04-03T07:32:03.658Z,99.90
2019-04-03T07:34:29.782Z,99.90
2019-04-03T07:36:55.945Z,99.90
2019-04-03T07:39:22.120Z,99.90
2019-04-03T07:41:48.525Z,99.90
2019-04-03T07:44:14.824Z,99.90
2019-04-03T07:46:40.903Z,99.90
2019-04-03T07:49:09.111Z,99.90
2019-04-03T07:51:35.036Z,99.90
2019-04-03T07:54:04.116Z,99.90
2019-04-03T07:56:29.100Z,99.90
2019-04-03T07:58:55.207Z,99.90
2019-04-03T08:01:21.426Z,99.90
2019-04-03T08:03:47.594Z,99.90
2019-04-03T08:06:13.702Z,99.90
2019-04-03T08:08:39.843Z,99.90
2019-04-03T08:11:06.072Z,99.90
2019-04-03T08:13:32.302Z,99.90
2019-04-03T08:15:58.784Z,99.90
2019-04-03T08:18:25.221Z,99.90
2019-04-03T08:20:51.498Z,99.90
2019-04-03T08:23:17.679Z,99.90
2019-04-03T08:25:47.494Z,99.90
2019-04-03T08:28:11.863Z,99.90
2019-04-03T08:30:40.007Z,99.90
2019-04-03T08:33:15.154Z,99.90
2019-04-03T08:35:35.728Z,99.90
2019-04-03T08:38:01.995Z,99.90
2019-04-03T08:40:28.093Z,99.90
2019-04-03T08:42:54.379Z,99.90
2019-04-03T08:45:22.081Z,99.90
2019-04-03T08:47:48.550Z,99.90
2019-04-03T08:50:14.948Z,99.90
2019-04-03T08:52:41.158Z,99.90
2019-04-03T08:55:08.153Z,99.90
2019-04-03T08:57:34.440Z,99.90
2019-04-03T09:00:01.270Z,99.90
2019-04-03T09:02:27.748Z,99.90
2019-04-03T09:04:54.368Z,99.90
2019-04-03T09:07:20.688Z,99.90
2019-04-03T09:09:46.842Z,99.90
2019-04-03T09:12:13.092Z,99.90
2019-04-03T09:14:39.250Z,99.90
2019-04-03T09:17:06.309Z,99.90
2019-04-03T09:19:32.613Z,99.90
2019-04-03T09:21:58.826Z,99.90
2019-04-03T09:24:25.287Z,99.90
2019-04-03T09:26:51.567Z,99.90
2019-04-03T09:29:17.770Z,99.90
2019-04-03T09:31:44.106Z,99.90
2019-04-03T09:34:10.377Z,99.90
2019-04-03T09:36:36.493Z,99.90
2019-04-03T09:39:06.303Z,99.90
2019-04-03T09:41:32.422Z,99.90
2019-04-03T09:43:58.831Z,99.90
2019-04-03T09:46:45.346Z,99.90
2019-04-03T09:49:12.059Z,99.90
2019-04-03T09:51:38.361Z,99.90
2019-04-03T09:54:04.923Z,99.90
2019-04-03T09:56:31.282Z,99.90
2019-04-03T09:58:57.485Z,99.90
2019-04-03T10:01:23.773Z,99.90
2019-04-03T10:03:50.043Z,99.90
2019-04-03T10:06:16.722Z,99.90
2019-04-03T10:08:42.814Z,99.90
2019-04-03T10:11:08.916Z,99.90
2019-04-03T10:13:35.330Z,99.90
2019-04-03T10:16:03.870Z,99.90
2019-04-03T10:18:29.910Z,99.90
2019-04-03T10:20:55.988Z,99.90
2019-04-03T10:23:22.232Z,99.90
2019-04-03T10:25:48.442Z,99.90
2019-04-03T10:28:15.339Z,99.90
2019-04-03T10:30:41.992Z,99.90
2019-04-03T10:33:08.231Z,99.90
2019-04-03T10:35:34.572Z,99.90
2019-04-03T10:38:00.996Z,99.90
2019-04-03T10:40:27.346Z,99.90
2019-04-03T10:42:53.989Z,99.90
2019-04-03T10:45:20.671Z,99.90
2019-04-03T10:47:47.059Z,99.90
2019-04-03T10:50:14.073Z,99.90
2019-04-03T10:52:40.350Z,99.90
2019-04-03T10:55:07.262Z,99.90
2019-04-03T10:57:34.772Z,99.90
2019-04-03T11:00:02.863Z,99.90
2019-04-03T11:02:29.732Z,99.90
2019-04-03T11:04:56.123Z,99.90
2019-04-03T11:07:22.423Z,99.90
2019-04-03T11:09:48.678Z,99.90
2019-04-03T11:12:14.792Z,99.90
2019-04-03T11:14:40.997Z,99.90
2019-04-03T11:17:07.127Z,99.90
2019-04-03T11:19:33.333Z,99.90
2019-04-03T11:21:59.449Z,99.90
2019-04-03T11:24:25.684Z,99.90
2019-04-03T11:26:52.499Z,99.90
2019-04-03T11:29:19.365Z,99.90
2019-04-03T11:31:45.542Z,99.90
2019-04-03T11:34:11.900Z,99.90
2019-04-03T11:36:38.220Z,99.90
2019-04-03T11:39:13.443Z,99.90
2019-04-03T11:41:35.710Z,99.90
2019-04-03T11:44:01.885Z,99.90
2019-04-03T11:46:28.033Z,99.90
2019-04-03T11:48:54.310Z,99.90
2019-04-03T11:51:21.046Z,99.90
2019-04-03T11:53:47.380Z,99.90
2019-04-03T11:56:14.178Z,99.90
2019-04-03T11:58:40.975Z,99.90
2019-04-03T12:01:08.692Z,99.90
2019-04-03T12:03:34.838Z,99.90
2019-04-03T12:06:00.931Z,99.90
2019-04-03T12:08:28.525Z,99.90
2019-04-03T12:10:55.115Z,99.90
2019-04-03T12:13:22.023Z,99.90
2019-04-03T12:15:48.346Z,99.90
2019-04-03T12:18:15.486Z,99.90
2019-04-03T12:20:44.779Z,99.90
2019-04-03T12:23:17.259Z,99.90
2019-04-03T12:25:43.661Z,99.90
2019-04-03T12:28:09.877Z,99.90
2019-04-03T12:30:36.019Z,99.90
2019-04-03T12:33:02.189Z,99.90
2019-04-03T12:35:28.387Z,99.90
2019-04-03T12:37:54.549Z,99.90
2019-04-03T12:40:20.738Z,99.90
2019-04-03T12:42:46.953Z,99.90
2019-04-03T12:45:17.473Z,99.90
2019-04-03T12:47:44.461Z,99.90
2019-04-03T12:50:13.457Z,99.90
2019-04-03T12:52:43.384Z,99.90
2019-04-03T12:55:08.613Z,99.90
2019-04-03T12:57:38.024Z,99.90
2019-04-03T13:00:10.758Z,99.90
2019-04-03T13:02:36.925Z,99.90
2019-04-03T13:05:06.313Z,99.90
2019-04-03T13:07:36.244Z,99.90
2019-04-03T13:10:06.991Z,99.90
2019-04-03T13:12:34.129Z,99.90
2019-04-03T13:15:02.080Z,99.90
2019-04-03T13:17:28.346Z,99.90
2019-04-03T13:19:54.554Z,99.90
2019-04-03T13:22:20.753Z,99.90
2019-04-03T13:24:48.309Z,99.90
2019-04-03T13:27:14.979Z,99.90
2019-04-03T13:29:41.310Z,99.90
2019-04-03T13:32:07.567Z,99.90
2019-04-03T13:34:34.060Z,99.90
2019-04-03T13:37:00.372Z,99.90
2019-04-03T13:39:26.616Z,99.90
2019-04-03T13:41:52.865Z,99.90
2019-04-03T13:44:19.189Z,99.90
2019-04-03T13:46:45.374Z,99.90
2019-04-03T13:49:11.560Z,99.90
2019-04-03T13:51:37.688Z,99.90
2019-04-03T13:54:06.969Z,99.90
2019-04-03T13:56:31.810Z,99.90
2019-04-03T13:58:57.990Z,99.90
2019-04-03T14:01:27.163Z,99.90
2019-04-03T14:03:52.290Z,99.90
2019-04-03T14:06:18.609Z,99.90
2019-04-03T14:08:45.617Z,99.90
2019-04-03T14:11:12.344Z,99.90
2019-04-03T14:13:38.560Z,99.90
2019-04-03T14:16:18.130Z,98.60
2019-04-03T14:18:32.669Z,99.90
2019-04-03T14:20:59.047Z,99.90
2019-04-03T14:23:25.296Z,98.70
2019-04-03T14:26:03.036Z,98.40
2019-04-03T14:28:19.650Z,99.90
2019-04-03T14:30:46.949Z,98.90
2019-04-03T14:33:13.568Z,98.10
2019-04-03T14:35:48.885Z,98.30
2019-04-03T14:38:07.873Z,97.80
2019-04-03T14:40:34.022Z,97.60
2019-04-03T14:43:00.260Z,97.30
2019-04-03T14:45:26.569Z,97.80
2019-04-03T14:47:54.867Z,98.70
2019-04-03T14:50:21.313Z,97.70
2019-04-03T14:52:49.180Z,98.10
2019-04-03T14:55:19.920Z,98.20
2019-04-03T14:57:43.660Z,99.50
2019-04-03T15:00:25.303Z,99.10
2019-04-03T15:02:40.082Z,99.90
2019-04-03T15:05:08.406Z,99.90
2019-04-03T15:07:35.327Z,99.30
2019-04-03T15:10:02.689Z,99.60
2019-04-03T15:12:29.319Z,99.70
2019-04-03T15:14:56.015Z,99.90
2019-04-03T15:17:22.537Z,99.90
2019-04-03T15:19:48.814Z,99.70
2019-04-03T15:22:15.401Z,99.90
2019-04-03T15:24:43.419Z,99.90
2019-04-03T15:27:09.944Z,99.70
2019-04-03T15:29:38.182Z,99.00
2019-04-03T15:32:04.358Z,99.60
2019-04-03T15:34:30.767Z,98.70
2019-04-03T15:36:57.167Z,98.90
2019-04-03T15:39:23.985Z,99.40
2019-04-03T15:41:50.542Z,99.60
2019-04-03T15:44:19.978Z,99.90
2019-04-03T15:46:45.281Z,99.40
2019-04-03T15:49:11.480Z,99.50
2019-04-03T15:51:38.854Z,98.70
2019-04-03T15:54:05.782Z,99.90
2019-04-03T15:56:32.242Z,98.80
2019-04-03T15:58:59.269Z,99.40
2019-04-03T16:01:25.689Z,99.90
2019-04-03T16:03:52.380Z,98.60
2019-04-03T16:06:18.932Z,98.20
2019-04-03T16:08:47.360Z,97.70
2019-04-03T16:11:13.753Z,98.00
2019-04-03T16:13:40.109Z,98.10
2019-04-03T16:16:06.594Z,96.70
2019-04-03T16:18:32.955Z,96.70
2019-04-03T16:20:59.503Z,97.30
2019-04-03T16:23:26.299Z,97.00
2019-04-03T16:25:52.624Z,96.70
2019-04-03T16:28:18.925Z,96.30
2019-04-03T16:30:48.763Z,97.10
2019-04-03T16:33:21.599Z,97.00
2019-04-03T16:35:44.768Z,97.10
2019-04-03T16:38:09.621Z,96.80
2019-04-03T16:40:37.811Z,96.40
2019-04-03T16:43:04.120Z,97.80
2019-04-03T16:45:30.441Z,96.40
2019-04-03T16:47:56.659Z,96.70
2019-04-03T16:50:26.224Z,97.00
2019-04-03T16:52:50.948Z,97.00
2019-04-03T16:55:17.608Z,96.50
2019-04-03T16:57:43.959Z,98.70
2019-04-03T17:00:11.252Z,97.00
2019-04-03T17:02:37.639Z,96.80
2019-04-03T17:05:06.212Z,96.90
2019-04-03T17:07:32.824Z,97.20
2019-04-03T17:09:59.466Z,97.40
2019-04-03T17:12:25.742Z,97.70
2019-04-03T17:14:52.944Z,97.20
2019-04-03T17:17:20.865Z,97.90
2019-04-03T17:19:49.935Z,98.40
2019-04-03T17:22:15.119Z,97.80
2019-04-03T17:24:45.109Z,97.80
2019-04-03T17:27:09.300Z,97.40
2019-04-03T17:29:35.673Z,97.80
2019-04-03T17:32:02.202Z,98.30
2019-04-03T17:34:28.502Z,98.10
2019-04-03T17:36:54.658Z,99.20
2019-04-03T17:39:40.840Z,98.00
2019-04-03T17:42:08.631Z,97.60
2019-04-03T17:44:38.026Z,98.30
2019-04-03T17:47:03.283Z,97.40
2019-04-03T17:49:29.450Z,97.30
2019-04-03T17:51:58.014Z,98.40
2019-04-03T17:54:23.645Z,97.80
2019-04-03T17:56:49.847Z,98.20
2019-04-03T17:59:18.082Z,98.70
2019-04-03T18:01:43.942Z,98.40
2019-04-03T18:04:10.102Z,98.20
2019-04-03T18:06:36.301Z,97.90
2019-04-03T18:09:06.031Z,97.50
2019-04-03T18:11:32.108Z,98.80
2019-04-03T18:13:58.243Z,98.60
2019-04-03T18:16:24.338Z,98.20
2019-04-03T18:18:50.436Z,97.60
2019-04-03T18:21:17.148Z,98.50
2019-04-03T18:23:43.824Z,98.60
2019-04-03T18:26:10.082Z,97.40
2019-04-03T18:28:36.368Z,98.20
2019-04-03T18:31:02.902Z,97.80
2019-04-03T18:33:29.038Z,97.20
2019-04-03T18:35:56.704Z,97.60
2019-04-03T18:38:23.258Z,97.60
2019-04-03T18:40:49.557Z,99.90
2019-04-03T18:43:15.682Z,99.90
2019-04-03T18:45:41.898Z,99.90
2019-04-03T18:48:08.139Z,99.90
2019-04-03T18:50:35.134Z,99.90
2019-04-03T18:53:02.230Z,99.90
2019-04-03T18:55:28.450Z,99.90
2019-04-03T18:57:54.699Z,99.90
2019-04-03T19:00:21.090Z,99.90
2019-04-03T19:02:47.261Z,99.90
2019-04-03T19:05:14.363Z,99.90
2019-04-03T19:07:40.868Z,99.90
2019-04-03T19:10:07.958Z,99.90
2019-04-03T19:12:36.029Z,99.90
2019-04-03T19:15:04.596Z,99.90
2019-04-03T19:17:30.829Z,99.90
2019-04-03T19:20:09.773Z,99.90
2019-04-03T19:22:25.701Z,99.90
2019-04-03T19:24:52.540Z,99.90
2019-04-03T19:27:18.740Z,99.90
2019-04-03T19:29:44.898Z,99.90
2019-04-03T19:32:12.216Z,99.90
2019-04-03T19:34:39.040Z,99.90
2019-04-03T19:37:05.358Z,99.90
2019-04-03T19:39:31.556Z,99.90
2019-04-03T19:41:57.828Z,99.90
2019-04-03T19:44:24.048Z,99.90
2019-04-03T19:46:50.198Z,99.90
2019-04-03T19:49:16.553Z,99.90
2019-04-03T19:51:42.736Z,99.90
2019-04-03T19:54:08.828Z,99.90
2019-04-03T19:56:34.961Z,99.90
2019-04-03T19:59:01.299Z,99.90
2019-04-03T20:01:27.516Z,99.90
2019-04-03T20:03:53.613Z,99.90
2019-04-03T20:06:22.521Z,99.90
2019-04-03T20:08:47.728Z,99.90
2019-04-03T20:11:13.840Z,99.90
2019-04-03T20:13:40.416Z,99.90
2019-04-03T20:16:06.697Z,99.90
2019-04-03T20:18:32.821Z,99.90
2019-04-03T20:20:59.063Z,99.90
2019-04-03T20:23:25.367Z,99.90
2019-04-03T20:25:51.512Z,99.90
2019-04-03T20:28:17.848Z,99.90
2019-04-03T20:30:44.417Z,99.90
2019-04-03T20:33:11.761Z,99.90
2019-04-03T20:35:38.439Z,99.90
2019-04-03T20:38:04.561Z,99.90
2019-04-03T20:40:32.068Z,99.90
2019-04-03T20:42:59.111Z,99.90
2019-04-03T20:45:25.336Z,99.90
2019-04-03T20:47:51.558Z,99.90
2019-04-03T20:50:17.893Z,99.90
2019-04-03T20:52:46.061Z,99.90
2019-04-03T20:55:12.338Z,99.90
2019-04-03T20:57:38.494Z,99.90
2019-04-03T21:00:10.769Z,99.90
2019-04-03T21:02:37.016Z,99.90
2019-04-03T21:05:04.515Z,99.90
2019-04-03T21:07:30.628Z,99.90
2019-04-03T21:09:56.786Z,99.90
2019-04-03T21:12:23.029Z,99.90
2019-04-03T21:14:49.303Z,99.90
2019-04-03T21:17:18.600Z,99.90
2019-04-03T21:19:43.504Z,99.90
2019-04-03T21:22:09.635Z,99.90
2019-04-03T21:24:35.871Z,99.90
2019-04-03T21:27:01.983Z,99.90
2019-04-03T21:29:28.195Z,99.90
2019-04-03T21:31:56.395Z,99.90
2019-04-03T21:34:22.444Z,99.90
2019-04-03T21:36:48.585Z,99.90
2019-04-03T21:39:14.702Z,99.90
2019-04-03T21:41:40.939Z,99.90
2019-04-03T21:44:07.168Z,99.90
2019-04-03T21:46:33.334Z,99.90
2019-04-03T21:48:59.392Z,99.90
2019-04-03T21:51:25.525Z,99.90
2019-04-03T21:53:51.635Z,99.90
2019-04-03T21:56:17.844Z,99.90
2019-04-03T21:58:43.924Z,99.90
2019-04-03T22:01:16.961Z,99.90
2019-04-03T22:03:43.265Z,99.90
2019-04-03T22:06:09.466Z,99.90
2019-04-03T22:08:35.562Z,99.90
2019-04-03T22:11:04.670Z,99.90
2019-04-03T22:13:30.197Z,99.90
2019-04-03T22:15:56.259Z,99.90
2019-04-03T22:18:23.776Z,99.90
2019-04-03T22:20:50.391Z,99.90
2019-04-03T22:23:16.514Z,99.90
2019-04-03T22:25:42.634Z,99.90
2019-04-03T22:28:08.859Z,99.90
2019-04-03T22:30:35.073Z,99.90
2019-04-03T22:33:01.183Z,99.90
2019-04-03T22:35:28.051Z,99.90
2019-04-03T22:37:54.469Z,99.90
2019-04-03T22:40:20.593Z,99.90
2019-04-03T22:42:46.667Z,99.90
2019-04-03T22:45:12.797Z,99.90
2019-04-03T22:47:38.911Z,99.90
2019-04-03T22:50:05.859Z,99.90
2019-04-03T22:52:32.126Z,99.90
2019-04-03T22:54:58.318Z,99.90
2019-04-03T22:57:24.394Z,99.90
2019-04-03T22:59:50.529Z,99.90
2019-04-03T23:02:16.598Z,99.90
2019-04-03T23:04:46.091Z,99.90
2019-04-03T23:07:10.874Z,99.90
2019-04-03T23:09:36.956Z,99.90
2019-04-03T23:12:03.648Z,99.90
2019-04-03T23:14:29.931Z,99.90
2019-04-03T23:16:56.262Z,99.90
2019-04-03T23:19:22.388Z,99.90
2019-04-03T23:21:48.743Z,99.90
2019-04-03T23:24:15.038Z,99.90
2019-04-03T23:26:41.255Z,99.90
2019-04-03T23:29:07.370Z,99.90
2019-04-03T23:31:33.520Z,99.90
2019-04-03T23:33:59.606Z,99.90
2019-04-03T23:36:25.702Z,99.90
2019-04-03T23:38:51.845Z,99.90
2019-04-03T23:41:17.934Z,99.90
2019-04-03T23:43:44.083Z,99.90
2019-04-03T23:46:10.154Z,99.90
2019-04-03T23:48:36.269Z,99.90
2019-04-03T23:51:02.526Z,99.90
2019-04-03T23:53:31.808Z,99.90
2019-04-03T23:55:56.828Z,99.90
2019-04-03T23:58:23.037Z,99.90
